Etusivu
METAR-TAF:

METAR-TAF

Lentoasemat :

Brønnøysund, Norja

Leveyspiiri: 65-28N, Pituuspiiri: 012-13E, korkeus merenpinnasta: 0 m

Tämänhetkinen sää

Tämä raportti tehtiin 35 minuuttia sitten, kello 04.20 UTC
Tuuli 8 kn etelästä/lounaasta
Lämpötila 13°C
Kosteus 88%
Ilmanpaine 1022 hPa
Näkyvyys 10 km tai enemmän

METAR: ENBN 240420Z AUTO 20008KT 9999NDV SCT013/// BKN018/// BKN037/// 13/11 Q1022

Aika: 06:55 (04:55 UTC)

Sääennuste

Tämä raportti tehtiin 14 tuntia ja 55 minuuttia sitten, kello 14.00 UTC
Ennuste voimassa 23. päivästä klo 15 UTC - 23. päivään klo 19 UTC
Tuuli 8 kn lännestä/lounaasta
Näkyvyys 10 km tai enemmän
Muutamia pilviä 1000 ft:n korkeudessa
Hajanaisia pilviä 2000 ft:n korkeudessa, Kasvava cumulus-pilvi.

TAF: ENBN 231400Z 2315/2319 25008KT 9999 FEW010 SCT020TCU

Säähavainnot ja -ennusteet yli 4000 lentoasemalta (METAR- ja TAF-raportit).

Käytössä olevat sääasemat on merkitty karttaan keltaisilla ja punaisilla pisteillä.

Aseta hiiri pisteen päälle nähdäksesi sääaseman nimen.

Klikkaa sitten nähdäksesi säähavainnot ja -ennusteet.

Kartan vaihtaminen: klikkaa mustalla rastilla varustettuja vihreitä pisteitä, niin voit zoomata sisään; viivalla varustettua vihreää pistettä, niin voit zoomata ulos tai vihreitä nuolia, niin pääset viereisille kartoille.


METAR-TAF: